Список аэропортов
Фактическая погода:

18 октября, 09:50
Температура: +18°C (+18.0*)
Ветер: сев.-восточный 3 м/с
Давление: *760 мм
Без существ. явл.
Время (МСК)Темп. СВетерВлажностьДавлениеОблачностьОсадки
09:00+16СВ, 4 м/с90%1013 гПаясно
10:00+17СВ, 4 м/с86%1013 гПаясно
11:00+19СВ, 3 м/с81%1014 гПаясно
12:00+22СВ, 3 м/с69%1014 гПаясно
13:00+24В, 3 м/с61%1013 гПаясно
14:00+25В, 3 м/с56%1013 гПаясно
15:00+25В, 3 м/с52%1012 гПаясно
16:00+25ЮВ, 2 м/с53%1012 гПаясно
17:00+25Ю, 2 м/с58%1011 гПамалооблачно
18:00+24ЮЗ, 2 м/с66%1011 гПаясно
19:00+23ЮЗ, 2 м/с73%1012 гПас прояснениями
20:00+21З, 2 м/с82%1012 гПас прояснениями
21:00+21СЗ, 2 м/с86%1012 гПамалооблачно
22:00+20СЗ, 2 м/с89%1013 гПаоблачно
23:00+19С, 2 м/с92%1013 гПаоблачно
19 октября
00:00+19СВ, 2 м/с94%1013 гПаоблачно
01:00+19СВ, 3 м/с90%1014 гПаоблачно
02:00+18СВ, 2 м/с91%1014 гПас прояснениями
03:00+17СВ, 3 м/с89%1014 гПас прояснениями
04:00+17СВ, 3 м/с84%1014 гПаоблачно
05:00+17СВ, 3 м/с81%1014 гПаоблачно
06:00+16СВ, 3 м/с78%1014 гПас прояснениями
07:00+16СВ, 4 м/с79%1014 гПаясно
08:00+16СВ, 4 м/с80%1014 гПаясно
09:00+15СВ, 4 м/с79%1015 гПас прояснениями
10:00+17СВ, 4 м/с72%1015 гПаоблачно
11:00+19СВ, 4 м/с62%1016 гПас прояснениями
12:00+21СВ, 2 м/с56%1016 гПаоблачно
13:00+23СВ, 1 м/с53%1016 гПаоблачно
14:00+24СЗ, 1 м/с50%1016 гПаоблачно
15:00+25З, 2 м/с49%1016 гПас прояснениями
16:00+24З, 4 м/с52%1016 гПаоблачно
17:00+24З, 4 м/с55%1016 гПаясно
18:00+23З, 4 м/с54%1016 гПамалооблачно
19:00+22З, 4 м/с60%1016 гПас прояснениями
20:00+21З, 3 м/с68%1017 гПаясно
21:00+20З, 2 м/с76%1017 гПаясно
22:00+20З, 3 м/с78%1018 гПаясно
23:00+19СЗ, 2 м/с82%1018 гПаясно
20 октября
00:00+18С, 1 м/с90%1019 гПаясно
01:00+17С, 1 м/с92%1019 гПаясно
02:00+16СВ, 2 м/с91%1019 гПаясно
03:00+16СВ, 3 м/с90%1019 гПаясно
04:00+16СВ, 3 м/с85%1020 гПаясно
05:00+15СВ, 4 м/с82%1020 гПаясно
06:00+15СВ, 4 м/с81%1020 гПаясно
07:00+15СВ, 4 м/с80%1020 гПаясно
08:00+15СВ, 4 м/с79%1021 гПаясно
09:00+15СВ, 4 м/с78%1021 гПаясно